createdAt,value
2023-08-08T00:00:31.665Z,101437.41
2023-08-08T00:02:33.389Z,101443.59
2023-08-08T00:04:35.101Z,101430.66
2023-08-08T00:06:37.536Z,101424.47
2023-08-08T00:08:39.224Z,101429.63
2023-08-08T00:10:40.820Z,101434.88
2023-08-08T00:12:42.495Z,101438.38
2023-08-08T00:16:50.705Z,101438.38
2023-08-08T00:18:54.513Z,101427.81
2023-08-08T00:20:56.208Z,101426.97
2023-08-08T00:22:57.830Z,101431.34
2023-08-08T00:24:59.631Z,101428.59
2023-08-08T00:31:09.772Z,101428.75
2023-08-08T00:33:11.540Z,101424.28
2023-08-08T00:35:13.256Z,101427.91
2023-08-08T00:37:14.810Z,101428.75
2023-08-08T00:39:16.337Z,101427.81
2023-08-08T00:41:18.006Z,101414.59
2023-08-08T00:43:19.662Z,101412.78
2023-08-08T00:45:21.412Z,101407.47
2023-08-08T00:47:23.193Z,101407.47
2023-08-08T00:51:31.400Z,101406.69
2023-08-08T00:53:33.295Z,101402.25
2023-08-08T00:55:35.003Z,101402.25
2023-08-08T00:57:39.256Z,101398.72
2023-08-08T00:59:41.034Z,101395.31
2023-08-08T01:01:42.729Z,101390.72
2023-08-08T01:03:44.511Z,101396.06
2023-08-08T01:05:51.512Z,101400.53
2023-08-08T01:08:00.706Z,101398.72
2023-08-08T01:10:16.322Z,101397.13
2023-08-08T01:12:18.038Z,101399.78
2023-08-08T01:20:44.388Z,101394.53
2023-08-08T01:23:04.971Z,101400.63
2023-08-08T01:25:08.262Z,101397.19
2023-08-08T01:27:10.394Z,101398.16
2023-08-08T01:29:12.213Z,101392.84
2023-08-08T01:31:13.926Z,101393.69
2023-08-08T01:33:15.789Z,101399.00
2023-08-08T01:35:17.793Z,101393.69
2023-08-08T01:37:23.975Z,101392.06
2023-08-08T01:39:31.471Z,101390.16
2023-08-08T01:43:41.879Z,101399.13
2023-08-08T01:45:44.608Z,101395.56
2023-08-08T01:47:53.009Z,101401.78
2023-08-08T01:49:54.674Z,101399.19
2023-08-08T01:51:56.572Z,101410.63
2023-08-08T01:53:58.750Z,101407.09
2023-08-08T01:56:00.436Z,101406.22
2023-08-08T01:58:02.069Z,101403.66
2023-08-08T02:00:05.540Z,101392.06
2023-08-08T02:02:07.702Z,101395.56
2023-08-08T02:04:09.440Z,101400.03
2023-08-08T02:06:11.029Z,101395.69
2023-08-08T02:08:13.960Z,101400.03
2023-08-08T02:10:15.725Z,101387.69
2023-08-08T02:12:17.694Z,101379.72
2023-08-08T02:14:19.327Z,101377.06
2023-08-08T02:16:20.905Z,101367.38
2023-08-08T02:18:22.575Z,101363.81
2023-08-08T02:22:30.851Z,101366.47
2023-08-08T02:24:32.449Z,101369.16
2023-08-08T02:26:34.020Z,101373.53
2023-08-08T02:28:35.632Z,101371.81
2023-08-08T02:30:38.405Z,101366.47
2023-08-08T02:32:40.144Z,101366.59
2023-08-08T02:34:42.270Z,101363.94
2023-08-08T02:36:43.889Z,101356.81
2023-08-08T02:38:46.404Z,101351.47
2023-08-08T02:40:48.064Z,101346.16
2023-08-08T02:42:49.695Z,101344.44
2023-08-08T02:44:51.355Z,101354.13
2023-08-08T02:46:52.989Z,101356.03
2023-08-08T02:48:54.637Z,101357.75
2023-08-08T02:50:56.201Z,101363.09
2023-08-08T02:52:57.823Z,101368.47
2023-08-08T02:54:59.442Z,101368.41
2023-08-08T02:57:01.478Z,101367.56
2023-08-08T02:59:03.082Z,101367.56
2023-08-08T03:01:04.811Z,101364.00
2023-08-08T03:03:06.393Z,101367.56
2023-08-08T03:05:08.644Z,101366.66
2023-08-08T03:07:10.797Z,101366.78
2023-08-08T03:09:12.463Z,101373.06
2023-08-08T03:11:14.032Z,101375.59
2023-08-08T03:13:15.615Z,101377.41
2023-08-08T03:15:17.323Z,101366.88
2023-08-08T03:17:19.064Z,101370.28
2023-08-08T03:19:21.151Z,101371.25
2023-08-08T03:21:22.800Z,101367.75
2023-08-08T03:23:25.021Z,101362.41
2023-08-08T03:25:27.076Z,101370.41
2023-08-08T03:27:28.663Z,101367.75
2023-08-08T03:29:30.326Z,101370.47
2023-08-08T03:31:32.084Z,101359.84
2023-08-08T03:33:33.700Z,101354.50
2023-08-08T03:35:35.593Z,101360.69
2023-08-08T03:37:37.405Z,101362.50
2023-08-08T03:39:38.974Z,101366.97
2023-08-08T03:41:40.702Z,101372.28
2023-08-08T03:43:42.316Z,101376.75
2023-08-08T03:45:45.551Z,101377.59
2023-08-08T03:47:47.226Z,101376.75
2023-08-08T03:49:49.134Z,101386.44
2023-08-08T03:51:50.933Z,101387.41
2023-08-08T03:53:52.505Z,101383.03
2023-08-08T03:55:54.348Z,101385.69
2023-08-08T03:57:55.957Z,101384.75
2023-08-08T03:59:57.708Z,101389.22
2023-08-08T04:01:59.444Z,101391.00
2023-08-08T04:04:01.242Z,101389.22
2023-08-08T04:06:03.078Z,101390.13
2023-08-08T04:08:05.264Z,101378.63
2023-08-08T04:10:07.645Z,101385.78
2023-08-08T04:12:09.681Z,101382.16
2023-08-08T04:14:11.521Z,101378.63
2023-08-08T04:16:13.191Z,101372.47
2023-08-08T04:18:14.919Z,101387.56
2023-08-08T04:20:16.850Z,101383.09
2023-08-08T04:22:18.505Z,101387.47
2023-08-08T04:24:20.225Z,101384.06
2023-08-08T04:26:21.822Z,101384.06
2023-08-08T04:28:23.657Z,101378.75
2023-08-08T04:30:25.293Z,101382.34
2023-08-08T04:32:27.054Z,101377.91
2023-08-08T04:34:28.758Z,101384.06
2023-08-08T04:36:30.658Z,101387.66
2023-08-08T04:38:32.273Z,101373.50
2023-08-08T04:40:35.125Z,101376.16
2023-08-08T04:42:37.549Z,101382.34
2023-08-08T04:44:39.184Z,101382.44
2023-08-08T04:46:40.908Z,101390.31
2023-08-08T04:48:42.685Z,101388.72
2023-08-08T04:50:44.333Z,101383.28
2023-08-08T04:52:45.970Z,101379.78
2023-08-08T04:54:47.541Z,101374.47
2023-08-08T04:56:49.187Z,101374.47
2023-08-08T04:58:50.783Z,101378.94
2023-08-08T05:00:52.722Z,101378.09
2023-08-08T05:02:54.432Z,101369.13
2023-08-08T05:04:56.241Z,101367.50
2023-08-08T05:06:58.748Z,101368.28
2023-08-08T05:09:00.309Z,101360.38
2023-08-08T05:11:01.912Z,101372.75
2023-08-08T05:13:03.813Z,101366.56
2023-08-08T05:15:06.137Z,101367.44
2023-08-08T05:17:07.753Z,101367.44
2023-08-08T05:19:09.380Z,101366.56
2023-08-08T05:21:11.089Z,101364.78
2023-08-08T05:23:12.888Z,101363.91
2023-08-08T05:25:14.539Z,101362.13
2023-08-08T05:27:16.218Z,101366.56
2023-08-08T05:29:17.828Z,101362.19
2023-08-08T05:31:19.501Z,101361.22
2023-08-08T05:33:21.337Z,101363.91
2023-08-08T05:35:22.983Z,101365.63
2023-08-08T05:37:25.523Z,101371.03
2023-08-08T05:39:27.156Z,101370.19
2023-08-08T05:41:28.721Z,101371.03
2023-08-08T05:43:31.090Z,101376.34
2023-08-08T05:45:33.176Z,101369.31
2023-08-08T05:47:35.059Z,101377.31
2023-08-08T05:49:36.958Z,101381.78
2023-08-08T05:51:38.658Z,101376.44
2023-08-08T05:53:40.332Z,101385.28
2023-08-08T05:55:43.555Z,101388.78
2023-08-08T05:57:45.096Z,101385.28
2023-08-08T05:59:46.779Z,101384.31
2023-08-08T06:01:48.462Z,101385.19
2023-08-08T06:03:50.170Z,101383.59
2023-08-08T06:05:51.901Z,101386.91
2023-08-08T06:07:53.704Z,101389.56
2023-08-08T06:09:55.278Z,101380.75
2023-08-08T06:11:56.881Z,101392.22
2023-08-08T06:13:58.500Z,101394.91
2023-08-08T06:16:02.640Z,101386.91
2023-08-08T06:18:04.559Z,101385.28
2023-08-08T06:20:07.984Z,101398.41
2023-08-08T06:22:10.093Z,101392.22
2023-08-08T06:24:11.742Z,101403.72
2023-08-08T06:26:13.542Z,101408.09
2023-08-08T06:28:15.409Z,101409.81
2023-08-08T06:30:17.100Z,101408.94
2023-08-08T06:32:18.813Z,101404.50
2023-08-08T06:34:20.594Z,101407.16
2023-08-08T06:36:22.508Z,101403.63
2023-08-08T06:38:24.189Z,101416.00
2023-08-08T06:40:26.168Z,101413.34
2023-08-08T06:42:27.801Z,101410.66
2023-08-08T06:44:29.386Z,101408.00
2023-08-08T06:46:31.447Z,101408.88
2023-08-08T06:48:33.133Z,101399.25
2023-08-08T06:50:34.775Z,101405.34
2023-08-08T06:52:36.398Z,101403.72
2023-08-08T06:54:38.111Z,101401.84
2023-08-08T06:56:39.722Z,101406.28
2023-08-08T06:58:41.362Z,101398.28
2023-08-08T07:00:43.095Z,101398.28
2023-08-08T07:02:44.802Z,101391.19
2023-08-08T07:04:46.472Z,101392.97
2023-08-08T07:06:48.042Z,101402.75
2023-08-08T07:08:49.680Z,101399.19
2023-08-08T07:10:51.428Z,101402.69
2023-08-08T07:12:53.179Z,101408.88
2023-08-08T07:14:55.604Z,101398.28
2023-08-08T07:16:57.452Z,101389.28
2023-08-08T07:18:59.242Z,101394.59
2023-08-08T07:21:01.700Z,101390.06
2023-08-08T07:23:03.687Z,101395.44
2023-08-08T07:25:06.964Z,101391.88
2023-08-08T07:27:08.681Z,101389.22
2023-08-08T07:29:10.301Z,101387.41
2023-08-08T07:31:12.045Z,101385.59
2023-08-08T07:33:14.771Z,101381.97
2023-08-08T07:35:16.684Z,101379.31
2023-08-08T07:37:19.301Z,101375.72
2023-08-08T07:39:21.121Z,101381.97
2023-08-08T07:41:25.254Z,101382.75
2023-08-08T07:43:27.817Z,101376.56
2023-08-08T07:45:29.464Z,101381.78
2023-08-08T07:47:31.160Z,101373.72
2023-08-08T07:49:32.796Z,101384.25
2023-08-08T07:51:34.413Z,101389.50
2023-08-08T07:53:36.017Z,101386.66
2023-08-08T07:55:37.714Z,101382.09
2023-08-08T07:57:39.408Z,101381.16
2023-08-08T07:59:41.346Z,101379.22
2023-08-08T08:01:43.770Z,101372.97
2023-08-08T08:03:46.148Z,101366.69
2023-08-08T08:05:48.035Z,101376.31
2023-08-08T08:07:49.639Z,101366.41
2023-08-08T08:09:51.289Z,101369.91
2023-08-08T08:11:52.942Z,101371.72
2023-08-08T08:13:54.647Z,101376.97
2023-08-08T08:15:56.555Z,101371.66
2023-08-08T08:17:58.200Z,101369.91
2023-08-08T08:19:59.928Z,101362.88
2023-08-08T08:22:01.706Z,101364.41
2023-08-08T08:24:04.708Z,101361.75
2023-08-08T08:26:06.438Z,101366.13
2023-08-08T08:28:08.977Z,101365.19
2023-08-08T08:30:11.396Z,101356.34
2023-08-08T08:32:13.129Z,101354.44
2023-08-08T08:34:15.041Z,101364.13
2023-08-08T08:36:16.891Z,101358.81
2023-08-08T08:38:18.443Z,101363.09
2023-08-08T08:40:20.344Z,101366.63
2023-08-08T08:42:22.189Z,101365.66
2023-08-08T08:44:24.125Z,101364.78
2023-08-08T08:46:27.311Z,101370.00
2023-08-08T08:48:29.401Z,101376.22
2023-08-08T08:50:31.882Z,101378.88
2023-08-08T08:52:33.936Z,101374.47
2023-08-08T08:54:36.234Z,101377.06
2023-08-08T08:56:37.979Z,101377.91
2023-08-08T08:58:39.762Z,101370.75
2023-08-08T09:00:41.528Z,101363.66
2023-08-08T09:02:43.257Z,101372.44
2023-08-08T09:04:46.550Z,101363.59
2023-08-08T09:06:49.354Z,101359.88
2023-08-08T09:08:53.501Z,101361.69
2023-08-08T09:10:57.781Z,101360.63
2023-08-08T09:12:59.430Z,101361.59
2023-08-08T09:15:02.397Z,101365.88
2023-08-08T09:17:04.388Z,101365.00
2023-08-08T09:19:06.035Z,101361.50
2023-08-08T09:21:07.739Z,101353.50
2023-08-08T09:23:10.212Z,101368.53
2023-08-08T09:25:13.051Z,101359.69
2023-08-08T09:27:15.327Z,101364.72
2023-08-08T09:29:16.960Z,101361.09
2023-08-08T09:31:18.646Z,101356.63
2023-08-08T09:33:20.277Z,101365.47
2023-08-08T09:35:24.159Z,101354.81
2023-08-08T09:37:26.983Z,101352.16
2023-08-08T09:39:29.842Z,101338.84
2023-08-08T09:41:31.656Z,101345.91
2023-08-08T09:43:33.263Z,101335.25
2023-08-08T09:45:45.636Z,101339.63
2023-08-08T09:47:47.388Z,101334.22
2023-08-08T09:49:49.314Z,101330.66
2023-08-08T09:51:51.012Z,101328.88
2023-08-08T09:53:52.744Z,101322.66
2023-08-08T09:55:57.856Z,101326.22
2023-08-08T09:58:02.223Z,101327.91
2023-08-08T10:00:06.569Z,101323.34
2023-08-08T10:02:14.737Z,101322.41
2023-08-08T10:04:16.462Z,101319.72
2023-08-08T10:06:18.143Z,101313.56
2023-08-08T10:08:20.361Z,101308.13
2023-08-08T10:10:22.359Z,101315.13
2023-08-08T10:12:24.750Z,101320.47
2023-08-08T10:14:31.644Z,101325.72
2023-08-08T10:16:34.679Z,101315.06
2023-08-08T10:18:36.645Z,101308.78
2023-08-08T10:20:38.676Z,101311.44
2023-08-08T10:22:44.562Z,101313.16
2023-08-08T10:24:49.203Z,101298.88
2023-08-08T10:26:54.812Z,101304.09
2023-08-08T10:28:59.879Z,101305.81
2023-08-08T10:31:09.576Z,101308.38
2023-08-08T10:33:22.217Z,101308.38
2023-08-08T10:35:25.792Z,101312.75
2023-08-08T10:37:27.491Z,101302.97
2023-08-08T10:39:30.758Z,101310.00
2023-08-08T10:41:32.343Z,101316.09
2023-08-08T10:43:34.637Z,101315.22
2023-08-08T10:45:36.430Z,101301.81
2023-08-08T10:47:38.346Z,101308.84
2023-08-08T10:49:42.943Z,101317.59
2023-08-08T10:51:48.104Z,101303.41
2023-08-08T10:53:53.551Z,101296.38
2023-08-08T10:56:03.994Z,101296.28
2023-08-08T10:58:07.236Z,101295.22
2023-08-08T11:00:19.448Z,101299.72
2023-08-08T11:02:21.687Z,101303.97
2023-08-08T11:04:25.272Z,101305.69
2023-08-08T11:06:26.982Z,101305.78
2023-08-08T11:08:31.486Z,101289.72
2023-08-08T11:10:40.293Z,101295.88
2023-08-08T11:12:42.003Z,101290.56
2023-08-08T11:14:44.599Z,101292.25
2023-08-08T11:16:47.674Z,101292.25
2023-08-08T11:18:49.575Z,101289.59
2023-08-08T11:20:52.479Z,101289.72
2023-08-08T11:22:56.572Z,101291.28
2023-08-08T11:25:04.194Z,101292.06
2023-08-08T11:27:05.986Z,101289.38
2023-08-08T11:29:07.761Z,101288.34
2023-08-08T11:31:09.412Z,101283.66
2023-08-08T11:33:15.650Z,101275.34
2023-08-08T11:35:25.289Z,101277.53
2023-08-08T11:37:27.155Z,101275.50
2023-08-08T11:39:30.205Z,101272.44
2023-08-08T11:41:31.814Z,101271.09
2023-08-08T11:43:33.518Z,101269.06
2023-08-08T11:45:35.552Z,101276.09
2023-08-08T11:47:38.753Z,101267.16
2023-08-08T11:49:43.325Z,101266.06
2023-08-08T11:51:46.636Z,101268.66
2023-08-08T11:53:54.946Z,101272.28
2023-08-08T11:55:58.350Z,101258.94
2023-08-08T11:58:03.015Z,101257.88
2023-08-08T12:00:09.089Z,101262.25
2023-08-08T12:02:11.010Z,101249.66
2023-08-08T12:04:12.706Z,101252.31
2023-08-08T12:06:17.638Z,101252.13
2023-08-08T12:08:20.744Z,101248.59
2023-08-08T12:10:23.593Z,101251.91
2023-08-08T12:12:27.332Z,101243.81
2023-08-08T12:14:29.265Z,101237.50
2023-08-08T12:16:33.925Z,101243.47
2023-08-08T12:18:38.681Z,101237.19
2023-08-08T12:20:40.438Z,101237.94
2023-08-08T12:22:42.173Z,101231.63
2023-08-08T12:24:43.748Z,101230.69
2023-08-08T12:26:45.387Z,101232.19
2023-08-08T12:28:46.963Z,101232.94
2023-08-08T12:30:48.563Z,101227.59
2023-08-08T12:32:50.443Z,101219.59
2023-08-08T12:34:52.216Z,101225.66
2023-08-08T12:36:53.782Z,101220.25
2023-08-08T12:38:55.623Z,101226.31
2023-08-08T12:40:57.768Z,101217.22
2023-08-08T12:42:59.566Z,101216.03
2023-08-08T12:45:01.384Z,101205.38
2023-08-08T12:47:03.268Z,101207.81
2023-08-08T12:49:05.236Z,101207.81
2023-08-08T12:51:08.607Z,101204.94
2023-08-08T12:53:10.432Z,101195.88
2023-08-08T12:55:12.961Z,101202.91
2023-08-08T12:57:14.646Z,101201.84
2023-08-08T12:59:16.351Z,101201.84
2023-08-08T13:01:18.162Z,101194.69
2023-08-08T13:03:19.945Z,101196.41
2023-08-08T13:05:22.036Z,101190.84
2023-08-08T13:07:24.054Z,101192.56
2023-08-08T13:09:25.666Z,101192.44
2023-08-08T13:11:27.806Z,101186.16
2023-08-08T13:13:29.519Z,101186.16
2023-08-08T13:15:31.245Z,101181.44
2023-08-08T13:17:32.965Z,101188.38
2023-08-08T13:19:34.541Z,101191.78
2023-08-08T13:21:36.288Z,101188.91
2023-08-08T13:23:37.966Z,101198.53
2023-08-08T13:25:39.641Z,101187.75
2023-08-08T13:27:43.564Z,101188.38
2023-08-08T13:29:45.232Z,101189.84
2023-08-08T13:31:46.888Z,101192.06
2023-08-08T13:33:48.506Z,101186.50
2023-08-08T13:35:50.103Z,101185.53
2023-08-08T13:37:53.279Z,101179.22
2023-08-08T13:39:55.021Z,101173.66
2023-08-08T13:41:56.773Z,101179.84
2023-08-08T13:43:58.444Z,101175.16
2023-08-08T13:46:01.361Z,101173.34
2023-08-08T13:48:03.432Z,101177.69
2023-08-08T13:50:05.666Z,101167.78
2023-08-08T13:52:07.268Z,101178.09
2023-08-08T13:54:08.809Z,101170.84
2023-08-08T13:56:12.014Z,101163.66
2023-08-08T13:58:13.794Z,101158.44
2023-08-08T14:00:15.821Z,101167.94
2023-08-08T14:02:19.441Z,101168.78
2023-08-08T14:04:21.040Z,101170.47
2023-08-08T14:06:22.831Z,101174.00
2023-08-08T14:08:24.543Z,101172.19
2023-08-08T14:10:26.540Z,101173.16
2023-08-08T14:12:28.197Z,101170.25
2023-08-08T14:14:29.883Z,101164.91
2023-08-08T14:16:31.572Z,101163.00
2023-08-08T14:18:33.317Z,101161.16
2023-08-08T14:20:35.194Z,101155.06
2023-08-08T14:22:36.872Z,101163.22
2023-08-08T14:24:38.505Z,101166.59
2023-08-08T14:26:40.138Z,101161.03
2023-08-08T14:28:41.904Z,101157.41
2023-08-08T14:30:43.766Z,101156.56
2023-08-08T14:32:45.411Z,101159.34
2023-08-08T14:34:47.064Z,101157.41
2023-08-08T14:36:48.654Z,101154.63
2023-08-08T14:38:50.241Z,101155.47
2023-08-08T14:40:53.675Z,101155.47
2023-08-08T14:42:56.504Z,101158.88
2023-08-08T14:44:58.424Z,101157.81
2023-08-08T14:47:00.204Z,101148.81
2023-08-08T14:49:02.345Z,101161.31
2023-08-08T14:51:04.359Z,101153.31
2023-08-08T14:53:06.945Z,101155.84
2023-08-08T14:55:09.266Z,101162.69
2023-08-08T14:57:10.892Z,101159.88
2023-08-08T14:59:12.575Z,101157.84
2023-08-08T15:01:14.273Z,101163.06
2023-08-08T15:03:16.141Z,101161.25
2023-08-08T15:05:17.811Z,101159.44
2023-08-08T15:07:19.443Z,101162.09
2023-08-08T15:09:21.022Z,101163.72
2023-08-08T15:11:22.748Z,101168.59
2023-08-08T15:13:24.520Z,101155.00
2023-08-08T15:15:28.546Z,101164.59
2023-08-08T15:17:30.227Z,101165.22
2023-08-08T15:19:32.020Z,101165.22
2023-08-08T15:21:33.618Z,101168.75
2023-08-08T15:23:35.232Z,101163.19
2023-08-08T15:25:42.824Z,101155.78
2023-08-08T15:27:44.515Z,101155.63
2023-08-08T15:29:46.597Z,101155.53
2023-08-08T15:31:48.401Z,101156.16
2023-08-08T15:33:50.058Z,101159.44
2023-08-08T15:35:51.704Z,101159.19
2023-08-08T15:37:53.361Z,101158.22
2023-08-08T15:39:55.188Z,101163.31
2023-08-08T15:41:56.796Z,101165.00
2023-08-08T15:43:58.542Z,101167.69
2023-08-08T15:46:00.576Z,101163.22
2023-08-08T15:48:03.034Z,101155.19
2023-08-08T15:50:05.402Z,101153.47
2023-08-08T15:52:07.132Z,101149.94
2023-08-08T15:54:08.877Z,101145.59
2023-08-08T15:56:10.535Z,101142.06
2023-08-08T15:58:12.649Z,101143.75
2023-08-08T16:00:16.584Z,101131.22
2023-08-08T16:02:19.257Z,101123.09
2023-08-08T16:04:21.059Z,101126.97
2023-08-08T16:06:22.701Z,101120.66
2023-08-08T16:08:24.406Z,101118.00
2023-08-08T16:10:26.170Z,101117.75
2023-08-08T16:12:27.919Z,101113.97
2023-08-08T16:14:29.607Z,101104.72
2023-08-08T16:16:33.337Z,101111.66
2023-08-08T16:18:35.050Z,101101.56
2023-08-08T16:20:36.834Z,101098.78
2023-08-08T16:22:38.760Z,101099.66
2023-08-08T16:24:40.360Z,101107.19
2023-08-08T16:26:41.990Z,101107.91
2023-08-08T16:28:43.566Z,101100.47
2023-08-08T16:30:45.194Z,101096.38
2023-08-08T16:32:46.884Z,101099.75
2023-08-08T16:34:48.608Z,101101.47
2023-08-08T16:36:50.351Z,101102.19
2023-08-08T16:38:53.631Z,101102.19
2023-08-08T16:40:56.985Z,101090.88
2023-08-08T16:42:58.989Z,101087.97
2023-08-08T16:47:07.775Z,101086.25
2023-08-08T16:49:09.474Z,101086.97
2023-08-08T16:51:11.042Z,101082.59
2023-08-08T16:55:19.165Z,101112.03
2023-08-08T16:57:21.022Z,101102.31
2023-08-08T16:59:22.810Z,101088.94
2023-08-08T17:01:24.590Z,101086.63
2023-08-08T17:03:26.826Z,101091.97
2023-08-08T17:05:28.586Z,101093.94
2023-08-08T17:07:30.520Z,101107.41
2023-08-08T17:09:33.188Z,101110.31
2023-08-08T17:11:35.261Z,101112.28
2023-08-08T17:13:36.799Z,101114.09
2023-08-08T17:15:38.472Z,101118.97
2023-08-08T17:17:40.119Z,101119.94
2023-08-08T17:19:42.002Z,101113.00
2023-08-08T17:21:44.126Z,101116.53
2023-08-08T17:23:46.125Z,101119.31
2023-08-08T17:25:47.976Z,101120.44
2023-08-08T17:27:49.657Z,101119.56
2023-08-08T17:29:51.286Z,101117.16
2023-08-08T17:31:52.877Z,101110.81
2023-08-08T17:33:55.509Z,101122.59
2023-08-08T17:35:57.210Z,101126.50
2023-08-08T17:37:59.518Z,101119.31
2023-08-08T17:40:01.148Z,101121.84
2023-08-08T17:42:03.516Z,101117.38
2023-08-08T17:44:06.955Z,101117.25
2023-08-08T17:46:09.939Z,101121.63
2023-08-08T17:48:12.007Z,101122.59
2023-08-08T17:50:13.662Z,101121.75
2023-08-08T17:52:15.291Z,101123.59
2023-08-08T17:54:16.961Z,101124.28
2023-08-08T17:56:18.632Z,101119.94
2023-08-08T17:58:20.414Z,101114.34
2023-08-08T18:00:22.753Z,101123.81
2023-08-08T18:02:25.067Z,101129.16
2023-08-08T18:04:26.755Z,101134.28
2023-08-08T18:06:29.588Z,101134.41
2023-08-08T18:08:31.205Z,101133.19
2023-08-08T18:10:35.877Z,101133.78
2023-08-08T18:12:37.757Z,101140.97
2023-08-08T18:14:39.864Z,101128.34
2023-08-08T18:16:41.623Z,101140.59
2023-08-08T18:18:43.398Z,101135.16
2023-08-08T18:20:45.143Z,101132.22
2023-08-08T18:22:47.147Z,101114.72
2023-08-08T18:24:49.263Z,101109.13
2023-08-08T18:26:51.002Z,101106.06
2023-08-08T18:28:52.699Z,101105.94
2023-08-08T18:30:54.339Z,101100.50
2023-08-08T18:32:56.396Z,101104.00
2023-08-08T18:34:58.117Z,101117.00
2023-08-08T18:36:59.680Z,101117.00
2023-08-08T18:39:01.456Z,101115.56
2023-08-08T18:41:03.039Z,101109.34
2023-08-08T18:43:04.664Z,101112.88
2023-08-08T18:45:07.050Z,101097.66
2023-08-08T18:47:08.699Z,101093.06
2023-08-08T18:49:10.594Z,101088.69
2023-08-08T18:51:12.217Z,101089.66
2023-08-08T18:53:17.739Z,101092.06
2023-08-08T18:55:19.633Z,101094.03
2023-08-08T18:57:21.194Z,101093.81
2023-08-08T18:59:23.710Z,101097.13
2023-08-08T19:01:25.397Z,101094.69
2023-08-08T19:03:27.237Z,101092.00
2023-08-08T19:05:29.365Z,101094.75
2023-08-08T19:07:30.990Z,101083.97
2023-08-08T19:09:32.573Z,101077.75
2023-08-08T19:11:34.269Z,101067.16
2023-08-08T19:13:35.894Z,101075.19
2023-08-08T19:15:37.513Z,101071.66
2023-08-08T19:17:53.508Z,101073.50
2023-08-08T19:19:56.968Z,101078.84
2023-08-08T19:21:58.850Z,101075.31
2023-08-08T19:24:00.864Z,101070.91
2023-08-08T19:26:03.168Z,101068.38
2023-08-08T19:28:04.872Z,101070.06
2023-08-08T19:30:09.542Z,101059.50
2023-08-08T19:32:12.317Z,101047.97
2023-08-08T19:34:14.095Z,101047.09
2023-08-08T19:36:16.049Z,101035.78
2023-08-08T19:38:17.716Z,101034.09
2023-08-08T19:40:20.100Z,101038.59
2023-08-08T19:42:21.674Z,101038.00
2023-08-08T19:44:23.328Z,101047.13
2023-08-08T19:46:25.151Z,101039.34
2023-08-08T19:48:26.863Z,101039.44
2023-08-08T19:50:28.458Z,101045.06
2023-08-08T19:52:30.070Z,101044.31
2023-08-08T19:54:31.708Z,101047.09
2023-08-08T19:56:33.385Z,101054.53
2023-08-08T19:58:35.855Z,101051.25
2023-08-08T20:00:37.464Z,101054.06
2023-08-08T20:02:40.375Z,101057.81
2023-08-08T20:04:41.997Z,101058.81
2023-08-08T20:06:44.029Z,101055.38
2023-08-08T20:08:45.722Z,101060.00
2023-08-08T20:10:47.326Z,101071.81
2023-08-08T20:12:49.063Z,101065.56
2023-08-08T20:14:50.717Z,101071.16
2023-08-08T20:16:52.374Z,101085.50
2023-08-08T20:18:54.051Z,101084.91
2023-08-08T20:20:55.771Z,101089.41
2023-08-08T20:22:57.512Z,101076.38
2023-08-08T20:24:59.110Z,101081.72
2023-08-08T20:27:02.554Z,101092.69
2023-08-08T20:29:04.535Z,101096.44
2023-08-08T20:31:06.212Z,101098.28
2023-08-08T20:33:08.062Z,101102.88
2023-08-08T20:35:10.136Z,101098.59
2023-08-08T20:37:11.822Z,101106.75
2023-08-08T20:39:16.250Z,101099.78
2023-08-08T20:41:18.970Z,101104.38
2023-08-08T20:43:20.591Z,101104.53
2023-08-08T20:45:22.218Z,101091.38
2023-08-08T20:47:23.820Z,101099.50
2023-08-08T20:49:25.585Z,101105.72
2023-08-08T20:51:27.239Z,101106.69
2023-08-08T20:53:29.297Z,101111.41
2023-08-08T20:55:30.952Z,101119.56
2023-08-08T20:57:32.501Z,101123.16
2023-08-08T20:59:34.232Z,101116.25
2023-08-08T21:01:35.997Z,101122.47
2023-08-08T21:03:37.830Z,101118.06
2023-08-08T21:05:39.495Z,101125.34
2023-08-08T21:07:41.145Z,101133.38
2023-08-08T21:09:42.854Z,101132.63
2023-08-08T21:11:44.663Z,101140.78
2023-08-08T21:13:46.447Z,101146.22
2023-08-08T21:15:48.374Z,101144.63
2023-08-08T21:17:50.217Z,101154.44
2023-08-08T21:19:53.765Z,101150.09
2023-08-08T21:21:58.302Z,101142.91
2023-08-08T21:24:00.040Z,101135.28
2023-08-08T21:26:01.868Z,101141.47
2023-08-08T21:28:03.653Z,101152.13
2023-08-08T21:30:08.198Z,101152.22
2023-08-08T21:32:10.046Z,101138.16
2023-08-08T21:34:12.347Z,101139.97
2023-08-08T21:36:14.010Z,101155.25
2023-08-08T21:38:15.607Z,101148.22
2023-08-08T21:40:17.607Z,101148.22
2023-08-08T21:42:19.531Z,101148.22
2023-08-08T21:44:21.248Z,101153.66
2023-08-08T21:46:22.944Z,101149.31
2023-08-08T21:48:24.517Z,101148.44
2023-08-08T21:50:26.243Z,101146.72
2023-08-08T21:52:27.950Z,101143.22
2023-08-08T21:54:29.897Z,101136.19
2023-08-08T21:56:31.668Z,101134.44
2023-08-08T21:58:33.762Z,101129.09
2023-08-08T22:00:35.531Z,101124.75
2023-08-08T22:02:37.149Z,101135.44
2023-08-08T22:04:40.434Z,101127.53
2023-08-08T22:06:43.420Z,101130.22
2023-08-08T22:08:44.965Z,101132.97
2023-08-08T22:10:46.692Z,101126.78
2023-08-08T22:12:49.419Z,101130.44
2023-08-08T22:14:51.042Z,101125.19
2023-08-08T22:16:52.637Z,101128.72
2023-08-08T22:18:55.477Z,101120.00
2023-08-08T22:20:57.120Z,101119.13
2023-08-08T22:23:09.586Z,101112.06
2023-08-08T22:25:15.695Z,101112.91
2023-08-08T22:27:17.439Z,101120.09
2023-08-08T22:29:19.083Z,101113.06
2023-08-08T22:31:20.786Z,101108.69
2023-08-08T22:33:23.117Z,101107.84
2023-08-08T22:35:26.134Z,101099.94
2023-08-08T22:37:27.957Z,101102.72
2023-08-08T22:39:29.695Z,101107.19
2023-08-08T22:41:31.366Z,101109.84
2023-08-08T22:43:33.262Z,101101.97
2023-08-08T22:45:35.198Z,101101.13
2023-08-08T22:47:37.951Z,101100.38
2023-08-08T22:49:39.614Z,101098.56
2023-08-08T22:51:41.249Z,101098.78
2023-08-08T22:53:43.802Z,101101.44
2023-08-08T22:55:45.743Z,101109.47
2023-08-08T22:57:47.417Z,101107.75
2023-08-08T22:59:49.021Z,101105.94
2023-08-08T23:01:50.968Z,101101.66
2023-08-08T23:03:53.051Z,101111.41
2023-08-08T23:05:54.703Z,101105.22
2023-08-08T23:07:56.341Z,101101.66
2023-08-08T23:09:58.043Z,101098.28
2023-08-08T23:11:59.712Z,101093.88
2023-08-08T23:14:01.314Z,101090.34
2023-08-08T23:16:03.437Z,101089.50
2023-08-08T23:18:05.220Z,101082.47
2023-08-08T23:20:07.567Z,101079.88
2023-08-08T23:22:09.203Z,101075.44
2023-08-08T23:24:11.583Z,101071.88
2023-08-08T23:26:13.166Z,101066.69
2023-08-08T23:28:18.053Z,101072.84
2023-08-08T23:30:19.750Z,101078.19
2023-08-08T23:32:21.338Z,101088.03
2023-08-08T23:34:23.041Z,101081.84
2023-08-08T23:36:25.046Z,101087.28
2023-08-08T23:38:26.798Z,101088.13